Time;durP1;ratioP1;P1;durP2;ratioP2;P2;SDS_P1;SDS_P2;PMS_P1;PMS_P2;Temp;Humidity;BMP_temperature;BMP_pressure;BME280_temperature;BME280_humidity;BME280_pressure;Samples;Min_cycle;Max_cycle;Signal;HPM_P1;HPM_P2
2021/10/12 00:02:03;;;;;;;14.25;2.95;;;;;;;7.73;100.00;101084.88;5009178;28;20049;-81
2021/10/12 00:04:30;;;;;;;17.02;3.25;;;;;;;7.74;100.00;101090.06;5017474;28;20140;-80
2021/10/12 00:06:58;;;;;;;13.75;2.78;;;;;;;7.69;100.00;101094.63;5021336;28;20057;-81
2021/10/12 00:09:25;;;;;;;17.15;2.70;;;;;;;7.68;100.00;101090.31;5016533;28;20445;-83
2021/10/12 00:11:52;;;;;;;19.48;4.07;;;;;;;7.73;100.00;101079.66;5002325;28;20157;-78
2021/10/12 00:14:20;;;;;;;15.45;3.03;;;;;;;7.74;100.00;101076.09;5012679;28;20471;-80
2021/10/12 00:16:47;;;;;;;14.77;2.85;;;;;;;7.75;100.00;101080.47;4999267;28;20042;-84
2021/10/12 00:19:14;;;;;;;16.95;3.58;;;;;;;7.73;100.00;101075.25;4995430;28;20045;-84
2021/10/12 00:21:42;;;;;;;16.40;2.78;;;;;;;7.72;100.00;101076.19;5002436;28;20136;-78
2021/10/12 00:24:10;;;;;;;11.40;2.95;;;;;;;7.67;100.00;101075.50;5021158;28;20045;-81
2021/10/12 00:26:37;;;;;;;18.35;3.20;;;;;;;7.62;100.00;101082.72;5001372;28;20518;-79
2021/10/12 00:29:09;;;;;;;11.07;3.30;;;;;;;7.56;100.00;101085.53;5003415;28;20512;-81
2021/10/12 00:31:36;;;;;;;12.20;2.97;;;;;;;7.57;100.00;101080.25;4987283;28;20543;-80
2021/10/12 00:34:03;;;;;;;16.80;2.83;;;;;;;7.56;100.00;101075.06;5029629;28;20128;-84
2021/10/12 00:36:30;;;;;;;22.08;3.40;;;;;;;7.60;100.00;101074.03;5009837;28;20065;-77
2021/10/12 00:38:58;;;;;;;15.93;3.00;;;;;;;7.55;100.00;101074.22;4994612;28;20075;-85
2021/10/12 00:41:25;;;;;;;15.20;3.05;;;;;;;7.55;100.00;101065.50;4998640;28;20053;-79
2021/10/12 00:43:53;;;;;;;17.95;2.95;;;;;;;7.50;100.00;101070.06;4996709;28;20384;-79
2021/10/12 00:46:20;;;;;;;10.68;3.25;;;;;;;7.61;100.00;101067.91;5001513;28;20080;-78
2021/10/12 00:48:47;;;;;;;16.83;3.38;;;;;;;7.53;100.00;101068.19;5013617;28;20065;-78
2021/10/12 00:51:15;;;;;;;15.48;2.92;;;;;;;7.50;100.00;101067.47;4996251;28;20444;-86
2021/10/12 00:53:42;;;;;;;14.05;3.65;;;;;;;7.52;100.00;101061.25;5013990;28;20058;-78
2021/10/12 00:56:10;;;;;;;14.55;3.05;;;;;;;7.45;100.00;101059.78;5007106;28;20033;-80
2021/10/12 00:58:37;;;;;;;25.67;4.32;;;;;;;7.46;100.00;101056.25;5012755;28;20109;-88
2021/10/12 01:01:05;;;;;;;18.50;3.13;;;;;;;7.47;100.00;101047.47;5004285;28;20140;-85
2021/10/12 01:03:32;;;;;;;17.95;2.72;;;;;;;7.42;100.00;101056.41;4996719;28;20064;-89
2021/10/12 01:06:00;;;;;;;13.98;3.00;;;;;;;7.43;100.00;101045.03;5013286;28;20377;-78
2021/10/12 01:08:27;;;;;;;9.48;2.67;;;;;;;7.40;100.00;101053.88;5000276;28;20041;-79
2021/10/12 01:10:57;;;;;;;9.00;2.80;;;;;;;7.48;100.00;101049.19;4995770;28;20129;-81
2021/10/12 01:13:25;;;;;;;17.02;3.45;;;;;;;7.47;100.00;101049.22;4996132;28;20528;-83
2021/10/12 01:15:53;;;;;;;15.35;3.65;;;;;;;7.48;100.00;101046.56;5009658;28;20127;-78
2021/10/12 01:18:21;;;;;;;13.10;3.22;;;;;;;7.54;100.00;101040.22;4995889;28;20607;-80
2021/10/12 01:20:52;;;;;;;14.82;3.65;;;;;;;7.41;100.00;101031.16;4996353;28;20048;-85
2021/10/12 01:23:20;;;;;;;18.77;2.90;;;;;;;7.45;100.00;101030.97;5012031;28;20104;-78
2021/10/12 01:25:47;;;;;;;18.98;3.28;;;;;;;7.38;100.00;101026.88;4997753;28;20148;-81
2021/10/12 01:28:15;;;;;;;11.35;2.70;;;;;;;7.43;100.00;101019.72;5024619;28;20132;-86
2021/10/12 01:30:43;;;;;;;16.98;3.38;;;;;;;7.52;100.00;101013.22;5011927;28;20128;-83
2021/10/12 01:33:10;;;;;;;14.75;3.30;;;;;;;7.57;100.00;101012.16;5012404;28;20053;-86
2021/10/12 01:35:38;;;;;;;8.02;2.63;;;;;;;7.66;100.00;101012.69;5012222;28;20193;-80
2021/10/12 01:38:06;;;;;;;10.40;2.55;;;;;;;7.67;100.00;101014.41;5012033;28;20136;-83
2021/10/12 01:40:33;;;;;;;10.20;2.47;;;;;;;7.74;100.00;101021.91;5014564;28;20037;-81
2021/10/12 01:43:01;;;;;;;18.00;2.70;;;;;;;7.80;100.00;101010.34;5014035;28;20137;-84
2021/10/12 01:45:28;;;;;;;13.07;2.63;;;;;;;7.85;100.00;101003.16;4984249;28;20069;-78
2021/10/12 01:47:55;;;;;;;11.00;2.33;;;;;;;7.72;100.00;101002.81;4996680;28;20388;-87
2021/10/12 01:50:23;;;;;;;13.50;2.88;;;;;;;7.73;100.00;101001.88;5032513;28;20116;-80
2021/10/12 01:52:50;;;;;;;10.13;2.50;;;;;;;7.67;100.00;100996.06;5017577;28;20387;-81
2021/10/12 01:55:21;;;;;;;14.55;3.10;;;;;;;7.54;100.00;100993.91;5016422;28;20443;-78
2021/10/12 01:57:48;;;;;;;17.30;3.17;;;;;;;7.48;100.00;100988.09;5013642;28;20112;-81
2021/10/12 02:00:15;;;;;;;14.13;3.83;;;;;;;7.52;100.00;100992.25;5011485;28;20128;-80
2021/10/12 02:02:43;;;;;;;15.65;3.67;;;;;;;7.32;100.00;100987.84;4996078;28;20068;-84
2021/10/12 02:05:10;;;;;;;10.55;2.53;;;;;;;7.26;100.00;100980.22;5027099;28;20129;-82
2021/10/12 02:07:37;;;;;;;17.50;3.45;;;;;;;7.21;100.00;100969.94;4980465;28;20136;-79
2021/10/12 02:10:05;;;;;;;13.57;3.10;;;;;;;7.27;100.00;100971.44;4991996;28;20049;-83
2021/10/12 02:12:32;;;;;;;13.32;2.85;;;;;;;7.34;100.00;100968.53;5012517;28;20099;-82
2021/10/12 02:14:59;;;;;;;15.02;2.65;;;;;;;7.28;100.00;100962.69;4994082;28;20496;-84
2021/10/12 02:17:27;;;;;;;10.93;2.25;;;;;;;7.17;100.00;100949.19;5012203;28;20113;-78
2021/10/12 02:19:54;;;;;;;13.73;3.60;;;;;;;7.17;100.00;100955.25;5014936;28;20148;-82
2021/10/12 02:22:21;;;;;;;9.57;2.47;;;;;;;7.20;100.00;100949.03;5011426;28;20148;-80
2021/10/12 02:24:48;;;;;;;16.67;2.53;;;;;;;7.16;100.00;100945.72;4993118;28;20073;-79
2021/10/12 02:27:16;;;;;;;14.10;3.38;;;;;;;7.20;100.00;100939.41;4981369;28;20148;-80
2021/10/12 02:29:43;;;;;;;9.40;2.60;;;;;;;7.10;100.00;100936.31;5004646;28;20045;-84
2021/10/12 02:32:10;;;;;;;16.15;2.72;;;;;;;7.12;100.00;100938.03;5012005;28;20041;-86
2021/10/12 02:34:37;;;;;;;13.18;2.92;;;;;;;7.06;100.00;100934.72;5008012;28;20063;-81
2021/10/12 02:37:04;;;;;;;17.00;2.92;;;;;;;7.00;100.00;100929.75;4977759;28;20085;-82
2021/10/12 02:39:31;;;;;;;11.20;2.80;;;;;;;6.97;100.00;100927.22;5002754;28;20152;-78
2021/10/12 02:41:58;;;;;;;12.88;3.45;;;;;;;7.00;100.00;100916.66;5003921;28;20088;-81
2021/10/12 02:44:26;;;;;;;11.32;2.92;;;;;;;6.98;100.00;100915.00;5026608;28;20109;-82
2021/10/12 02:46:53;;;;;;;18.88;2.95;;;;;;;6.92;100.00;100912.63;5017415;28;20053;-87
2021/10/12 02:49:20;;;;;;;11.63;3.30;;;;;;;6.96;100.00;100915.06;5013768;28;20065;-80
2021/10/12 02:51:47;;;;;;;11.48;3.10;;;;;;;6.89;100.00;100918.84;5000240;28;20038;-81
2021/10/12 02:54:14;;;;;;;15.70;3.83;;;;;;;6.89;100.00;100917.97;5002356;28;20068;-86
2021/10/12 02:56:42;;;;;;;13.88;3.95;;;;;;;6.84;100.00;100911.19;4987425;28;20064;-79
2021/10/12 02:59:09;;;;;;;17.25;3.55;;;;;;;6.83;100.00;100912.06;5009132;28;20184;-82
2021/10/12 03:01:36;;;;;;;12.68;3.75;;;;;;;6.79;100.00;100920.09;5002106;28;20119;-79
2021/10/12 03:04:03;;;;;;;16.52;3.33;;;;;;;6.75;100.00;100915.88;5010374;28;20049;-80
2021/10/12 03:06:31;;;;;;;12.27;3.65;;;;;;;6.83;100.00;100926.91;5031045;28;20136;-81
2021/10/12 03:08:58;;;;;;;12.50;2.85;;;;;;;6.89;100.00;100933.66;4993602;28;20136;-83
2021/10/12 03:11:25;;;;;;;14.98;3.10;;;;;;;6.97;100.00;100922.00;5032280;28;20474;-84
2021/10/12 03:13:52;;;;;;;14.18;2.83;;;;;;;6.87;100.00;100919.81;4994066;28;20651;-83
2021/10/12 03:16:20;;;;;;;16.35;3.30;;;;;;;6.88;100.00;100909.28;4991011;28;20612;-78
2021/10/12 03:18:47;;;;;;;18.05;3.42;;;;;;;6.95;100.00;100907.28;5009084;28;20055;-84
2021/10/12 03:21:15;;;;;;;23.15;4.75;;;;;;;7.12;100.00;100901.38;4997842;28;20144;-79
2021/10/12 03:23:42;;;;;;;13.35;3.00;;;;;;;7.08;100.00;100898.03;5000084;28;20054;-79
2021/10/12 03:26:09;;;;;;;14.05;3.85;;;;;;;7.01;100.00;100900.03;5010036;28;20063;-81
2021/10/12 03:28:37;;;;;;;17.02;3.63;;;;;;;6.98;100.00;100888.81;5009695;28;20148;-78
2021/10/12 03:31:04;;;;;;;14.38;3.63;;;;;;;6.96;100.00;100882.81;5011539;28;20139;-80
2021/10/12 03:33:31;;;;;;;18.48;4.07;;;;;;;7.01;100.00;100884.31;5008714;28;20145;-81
2021/10/12 03:36:01;;;;;;;12.13;3.17;;;;;;;6.95;100.00;100878.50;4977810;28;20095;-78
2021/10/12 03:38:28;;;;;;;22.98;4.47;;;;;;;6.93;100.00;100873.28;5014313;28;20144;-78
2021/10/12 03:40:55;;;;;;;15.95;3.75;;;;;;;6.94;100.00;100863.72;5009858;28;20148;-83
2021/10/12 03:43:23;;;;;;;6.22;3.20;;;;;;;6.94;100.00;100858.47;4993315;28;20524;-79
2021/10/12 03:45:51;;;;;;;10.73;3.53;;;;;;;6.94;100.00;100853.25;5009631;28;20145;-79
2021/10/12 03:48:18;;;;;;;11.10;3.28;;;;;;;6.89;100.00;100857.78;5008936;28;20401;-80
2021/10/12 03:50:45;;;;;;;16.58;3.47;;;;;;;6.93;100.00;100852.34;4992876;28;20071;-82
2021/10/12 03:53:13;;;;;;;15.55;4.55;;;;;;;6.92;100.00;100841.97;4993490;28;20450;-82
2021/10/12 03:55:40;;;;;;;11.57;3.50;;;;;;;6.89;100.00;100839.47;4997516;28;20127;-79
2021/10/12 03:58:08;;;;;;;13.27;3.28;;;;;;;6.93;100.00;100843.66;5012751;28;20140;-82
2021/10/12 04:00:35;;;;;;;18.70;4.50;;;;;;;6.93;100.00;100843.66;5010884;28;20064;-78
2021/10/12 04:03:02;;;;;;;11.18;3.50;;;;;;;6.98;100.00;100836.47;5012116;28;20049;-79
2021/10/12 04:05:29;;;;;;;13.98;4.40;;;;;;;6.97;100.00;100837.38;5007695;28;20057;-82
2021/10/12 04:07:57;;;;;;;12.05;3.90;;;;;;;7.02;100.00;100838.91;5019369;28;20054;-79
2021/10/12 04:10:25;;;;;;;13.13;3.63;;;;;;;7.08;100.00;100832.59;4987541;28;20136;-79
2021/10/12 04:12:52;;;;;;;14.80;4.05;;;;;;;7.19;100.00;100830.34;5016015;28;20084;-81
2021/10/12 04:15:19;;;;;;;16.63;3.45;;;;;;;7.25;100.00;100826.63;5009754;28;20133;-81
2021/10/12 04:17:46;;;;;;;11.15;3.13;;;;;;;7.29;100.00;100818.56;5012892;28;20091;-83
2021/10/12 04:20:14;;;;;;;17.33;3.65;;;;;;;7.32;100.00;100817.59;5009640;28;20148;-80
2021/10/12 04:22:41;;;;;;;18.25;3.92;;;;;;;7.45;100.00;100820.56;5014118;28;20133;-80
2021/10/12 04:25:08;;;;;;;13.95;4.20;;;;;;;7.41;100.00;100830.31;5024560;28;20061;-80
2021/10/12 04:27:35;;;;;;;14.02;4.60;;;;;;;7.33;100.00;100821.91;5035178;28;20401;-79
2021/10/12 04:30:03;;;;;;;18.67;4.22;;;;;;;7.39;100.00;100819.06;5002789;28;20041;-81
2021/10/12 04:32:30;;;;;;;14.77;4.25;;;;;;;7.43;100.00;100818.03;5014102;28;20050;-81
2021/10/12 04:34:57;;;;;;;11.57;4.07;;;;;;;7.61;100.00;100809.38;4992931;28;20054;-81
2021/10/12 04:37:24;;;;;;;19.38;4.78;;;;;;;7.56;100.00;100805.22;5000502;28;20517;-84
2021/10/12 04:39:52;;;;;;;11.07;4.82;;;;;;;7.52;100.00;100795.78;4994619;28;20341;-80
2021/10/12 04:42:19;;;;;;;14.35;4.93;;;;;;;7.68;100.00;100796.81;4996631;28;20046;-80
2021/10/12 04:44:53;;;;;;;20.65;4.60;;;;;;;7.74;100.00;100793.06;5009370;28;20045;-81
2021/10/12 04:47:21;;;;;;;16.95;4.97;;;;;;;7.67;100.00;100799.53;5013156;28;20062;-79
2021/10/12 04:49:48;;;;;;;20.17;5.72;;;;;;;7.67;100.00;100797.75;4993210;28;20050;-81
2021/10/12 04:52:15;;;;;;;16.88;5.63;;;;;;;7.51;100.00;100796.72;5013157;28;20320;-88
2021/10/12 04:54:42;;;;;;;13.07;5.70;;;;;;;7.54;100.00;100792.19;4988252;28;20048;-79
2021/10/12 04:57:09;;;;;;;13.07;5.13;;;;;;;7.59;100.00;100784.13;4997068;28;20273;-81
2021/10/12 04:59:37;;;;;;;14.18;6.07;;;;;;;7.71;100.00;100788.00;5015022;28;20133;-80
2021/10/12 05:02:04;;;;;;;14.57;6.05;;;;;;;7.68;100.00;100782.88;5015630;28;20129;-80
2021/10/12 05:04:31;;;;;;;16.52;6.25;;;;;;;7.71;100.00;100767.03;4997123;28;20107;-76
2021/10/12 05:06:58;;;;;;;20.92;6.40;;;;;;;7.65;100.00;100762.03;4986102;28;20049;-80
2021/10/12 05:09:26;;;;;;;10.60;6.07;;;;;;;7.63;100.00;100741.16;5009623;28;20061;-77
2021/10/12 05:11:53;;;;;;;12.82;5.75;;;;;;;7.61;100.00;100729.91;4993468;28;20179;-80
2021/10/12 05:14:20;;;;;;;11.30;4.70;;;;;;;7.58;100.00;100719.56;4998323;28;20085;-77
2021/10/12 05:16:49;;;;;;;10.38;4.65;;;;;;;7.58;100.00;100720.41;4998304;28;20145;-79
2021/10/12 05:19:17;;;;;;;11.77;5.47;;;;;;;7.52;100.00;100718.06;4992348;28;20061;-79
2021/10/12 05:21:44;;;;;;;13.02;5.47;;;;;;;7.68;100.00;100705.13;5020498;28;20527;-82
2021/10/12 05:24:12;;;;;;;10.18;4.93;;;;;;;7.64;100.00;100700.09;4995263;28;20065;-78
2021/10/12 05:26:40;;;;;;;8.30;4.80;;;;;;;7.57;100.00;100689.91;5016820;28;20041;-87
2021/10/12 05:29:10;;;;;;;9.05;4.43;;;;;;;7.36;100.00;100715.28;5009013;28;20144;-82
2021/10/12 05:31:39;;;;;;;11.85;4.60;;;;;;;7.21;100.00;100715.97;4997335;28;20401;-82
2021/10/12 05:34:07;;;;;;;13.75;4.45;;;;;;;7.25;100.00;100720.16;5010400;28;20301;-86
2021/10/12 05:36:35;;;;;;;11.43;3.50;;;;;;;7.20;100.00;100718.63;4997506;28;20045;-77
2021/10/12 05:39:02;;;;;;;10.55;4.05;;;;;;;7.25;100.00;100714.91;5026412;28;20069;-85
2021/10/12 05:41:29;;;;;;;14.68;3.72;;;;;;;7.33;100.00;100719.78;4985679;28;20038;-82
2021/10/12 05:43:56;;;;;;;14.40;4.15;;;;;;;7.23;100.00;100715.88;4995138;28;20107;-84
2021/10/12 05:46:23;;;;;;;6.45;3.55;;;;;;;7.24;100.00;100715.81;5001857;28;20073;-77
2021/10/12 05:48:51;;;;;;;10.20;3.17;;;;;;;7.31;100.00;100717.25;5019144;28;20141;-79
2021/10/12 05:51:22;;;;;;;6.63;3.78;;;;;;;7.38;100.00;100714.34;4995018;28;20171;-79
2021/10/12 05:53:55;;;;;;;10.60;3.60;;;;;;;7.54;100.00;100721.47;4995014;28;20512;-83
2021/10/12 05:56:38;;;;;;;10.77;3.97;;;;;;;7.57;100.00;100713.47;4988788;28;20117;-80
2021/10/12 05:59:05;;;;;;;9.30;3.42;;;;;;;7.66;100.00;100716.59;5027799;28;20048;-85
2021/10/12 06:01:35;;;;;;;7.80;3.63;;;;;;;7.69;100.00;100705.97;5017628;28;20069;-81
2021/10/12 06:04:03;;;;;;;8.77;4.03;;;;;;;7.69;100.00;100706.81;5018602;28;20054;-84
2021/10/12 06:06:30;;;;;;;13.15;4.03;;;;;;;7.82;100.00;100717.59;4981414;28;20046;-78
2021/10/12 06:08:58;;;;;;;12.45;3.47;;;;;;;7.91;100.00;100724.19;4978772;28;20140;-86
2021/10/12 06:11:26;;;;;;;11.18;3.50;;;;;;;7.81;100.00;100716.75;4988866;28;20049;-82
2021/10/12 06:13:55;;;;;;;15.45;4.00;;;;;;;7.74;100.00;100717.09;4993804;28;20057;-78
2021/10/12 06:16:23;;;;;;;9.32;4.10;;;;;;;7.77;100.00;100716.94;5004413;28;20037;-84
2021/10/12 06:18:50;;;;;;;8.35;3.53;;;;;;;7.89;100.00;100711.16;5015813;28;20148;-83
2021/10/12 06:21:20;;;;;;;9.57;4.30;;;;;;;7.75;100.00;100706.56;4998059;28;20045;-86
2021/10/12 06:23:47;;;;;;;9.93;4.03;;;;;;;7.90;100.00;100706.75;5010599;28;20041;-80
2021/10/12 06:26:14;;;;;;;9.90;3.97;;;;;;;7.95;100.00;100721.34;5039281;28;20124;-80
2021/10/12 06:28:42;;;;;;;9.15;3.65;;;;;;;8.07;100.00;100718.16;5017538;28;20045;-78
2021/10/12 06:31:09;;;;;;;7.50;3.85;;;;;;;8.10;100.00;100712.78;5009262;28;20087;-79
2021/10/12 06:33:37;;;;;;;8.38;4.82;;;;;;;8.17;100.00;100709.84;4989402;28;20460;-76
2021/10/12 06:36:04;;;;;;;11.23;4.35;;;;;;;8.29;100.00;100711.91;5000648;28;20080;-80
2021/10/12 06:38:32;;;;;;;9.85;4.82;;;;;;;8.42;100.00;100713.03;5014000;28;20073;-85
2021/10/12 06:41:03;;;;;;;10.70;4.38;;;;;;;8.35;100.00;100715.06;5001918;28;20052;-79
2021/10/12 06:43:36;;;;;;;10.65;4.78;;;;;;;8.40;100.00;100721.91;5010895;28;20075;-80
2021/10/12 06:46:05;;;;;;;7.72;4.50;;;;;;;8.54;100.00;100714.19;5016227;28;20042;-83
2021/10/12 06:48:39;;;;;;;9.20;4.38;;;;;;;8.51;100.00;100712.59;4991992;28;20153;-85
2021/10/12 06:51:06;;;;;;;9.32;4.82;;;;;;;8.83;100.00;100710.16;5027066;28;20519;-84
2021/10/12 06:53:54;;;;;;;16.35;5.25;;;;;;;9.00;100.00;100704.03;4977963;28;20068;-78
2021/10/12 06:56:22;;;;;;;11.32;4.38;;;;;;;9.10;100.00;100711.38;5007494;28;20053;-80
2021/10/12 06:58:49;;;;;;;8.80;4.38;;;;;;;8.98;100.00;100711.97;5010805;28;20068;-80
2021/10/12 07:01:21;;;;;;;13.73;4.32;;;;;;;9.02;100.00;100713.53;4994789;28;20128;-84
2021/10/12 07:03:49;;;;;;;13.63;4.57;;;;;;;8.94;100.00;100705.19;5011562;28;20073;-78
2021/10/12 07:06:18;;;;;;;8.48;3.70;;;;;;;8.92;100.00;100717.56;4994559;28;20145;-82
2021/10/12 07:08:46;;;;;;;10.23;3.70;;;;;;;9.25;100.00;100703.63;5013921;28;20068;-79
2021/10/12 07:11:14;;;;;;;8.82;3.85;;;;;;;8.98;100.00;100700.63;5009050;28;20060;-81
2021/10/12 07:13:46;;;;;;;7.05;3.33;;;;;;;9.34;100.00;100705.75;5009987;28;20049;-82
2021/10/12 07:16:15;;;;;;;6.35;3.22;;;;;;;9.83;100.00;100705.78;4997249;28;20092;-81
2021/10/12 07:18:43;;;;;;;6.95;2.60;;;;;;;10.35;100.00;100708.16;4995294;28;20100;-79
2021/10/12 07:21:10;;;;;;;7.38;2.15;;;;;;;10.36;100.00;100715.97;5013010;28;20045;-82
2021/10/12 07:23:38;;;;;;;7.90;2.67;;;;;;;10.57;100.00;100707.78;5008858;28;20132;-78
2021/10/12 07:26:05;;;;;;;4.72;2.25;;;;;;;9.87;100.00;100709.94;4997175;28;20076;-79
2021/10/12 07:28:35;;;;;;;8.05;2.65;;;;;;;9.55;100.00;100714.31;4994795;28;20132;-78
2021/10/12 07:31:06;;;;;;;7.07;2.63;;;;;;;9.49;100.00;100711.97;4997810;28;20049;-78
2021/10/12 07:33:34;;;;;;;11.80;3.28;;;;;;;9.55;100.00;100715.16;5032631;28;20045;-80
2021/10/12 07:36:04;;;;;;;7.63;3.05;;;;;;;9.53;100.00;100709.09;5015736;28;20049;-87
2021/10/12 07:38:34;;;;;;;4.63;2.85;;;;;;;9.37;100.00;100708.25;5014828;28;20056;-78
2021/10/12 07:41:27;;;;;;;8.00;2.60;;;;;;;9.38;100.00;100709.94;5000042;28;20060;-81
2021/10/12 07:43:55;;;;;;;9.57;2.35;;;;;;;9.46;100.00;100696.41;4996838;28;20056;-81
2021/10/12 07:46:23;;;;;;;6.40;2.42;;;;;;;9.53;100.00;100705.63;4999094;28;20128;-80
2021/10/12 07:48:54;;;;;;;4.95;2.38;;;;;;;9.91;100.00;100708.84;4998802;28;20067;-82
2021/10/12 07:51:40;;;;;;;7.68;2.85;;;;;;;9.79;100.00;100697.19;5031230;28;20525;-80
2021/10/12 07:54:25;;;;;;;7.47;2.97;;;;;;;9.97;100.00;100691.88;5020723;28;20042;-82
2021/10/12 07:56:57;;;;;;;5.22;2.42;;;;;;;10.14;99.79;100694.41;5018467;28;20072;-85
2021/10/12 07:59:24;;;;;;;4.18;2.28;;;;;;;10.22;100.00;100701.84;5042482;28;20130;-81
2021/10/12 08:01:51;;;;;;;5.18;2.33;;;;;;;10.04;100.00;100696.72;4987899;28;20060;-80
2021/10/12 08:04:19;;;;;;;5.55;2.80;;;;;;;9.79;100.00;100701.59;5034241;28;20128;-84
2021/10/12 08:06:50;;;;;;;6.13;2.28;;;;;;;9.62;100.00;100690.22;5016837;28;20133;-85
2021/10/12 08:09:20;;;;;;;7.78;2.70;;;;;;;9.61;100.00;100699.03;4963192;28;20068;-78
2021/10/12 08:11:49;;;;;;;4.88;2.63;;;;;;;9.52;100.00;100696.06;4998952;28;20091;-80
2021/10/12 08:14:18;;;;;;;8.43;2.55;;;;;;;9.30;100.00;100688.47;4995926;28;20191;-83
2021/10/12 08:16:47;;;;;;;5.57;2.42;;;;;;;9.41;100.00;100699.25;5016325;28;20100;-79
2021/10/12 08:19:15;;;;;;;9.38;2.63;;;;;;;9.53;100.00;100695.13;5015386;28;20072;-86
2021/10/12 08:21:43;;;;;;;5.00;2.80;;;;;;;9.55;100.00;100696.75;5021326;28;20479;-85
2021/10/12 08:24:11;;;;;;;4.70;2.78;;;;;;;9.70;100.00;100694.22;5032906;28;20044;-82
2021/10/12 08:26:42;;;;;;;11.73;3.58;;;;;;;9.81;100.00;100692.69;5014815;28;20076;-81
2021/10/12 08:29:10;;;;;;;8.20;3.00;;;;;;;9.68;100.00;100696.94;5001395;28;20041;-86
2021/10/12 08:31:39;;;;;;;7.13;2.80;;;;;;;9.50;100.00;100688.28;4992897;28;20094;-81
2021/10/12 08:34:07;;;;;;;6.57;2.67;;;;;;;9.77;100.00;100688.56;4987664;28;20076;-84
2021/10/12 08:36:38;;;;;;;4.00;2.35;;;;;;;9.59;100.00;100682.50;5045273;28;20049;-81
2021/10/12 08:39:07;;;;;;;4.35;1.80;;;;;;;9.96;100.00;100685.75;5003953;28;20053;-85
2021/10/12 08:41:42;;;;;;;5.15;2.10;;;;;;;10.15;100.00;100689.06;5014366;28;20076;-80
2021/10/12 08:44:11;;;;;;;4.88;1.80;;;;;;;9.93;100.00;100690.34;5019987;28;20103;-86
2021/10/12 08:46:40;;;;;;;7.45;2.33;;;;;;;9.94;100.00;100684.97;4965816;28;20144;-78
2021/10/12 08:49:12;;;;;;;5.07;1.80;;;;;;;9.72;100.00;100682.66;5039828;28;20373;-84
2021/10/12 08:51:44;;;;;;;5.50;2.20;;;;;;;10.10;100.00;100675.31;5040574;28;20057;-83
2021/10/12 08:54:16;;;;;;;7.45;2.20;;;;;;;10.06;99.74;100672.94;5018984;28;20050;-82
2021/10/12 08:56:45;;;;;;;9.85;2.17;;;;;;;11.93;91.41;100664.41;5030671;28;20531;-80
2021/10/12 08:59:12;;;;;;;6.28;1.70;;;;;;;13.07;84.04;100666.53;5042483;28;20221;-84
2021/10/12 09:02:00;;;;;;;3.42;1.45;;;;;;;14.53;74.07;100664.94;5005595;28;20422;-79
2021/10/12 09:04:39;;;;;;;6.55;1.05;;;;;;;12.87;79.81;100660.78;5000857;28;20391;-80
2021/10/12 09:07:22;;;;;;;3.83;1.48;;;;;;;11.43;87.34;100664.00;5021374;28;20514;-82
2021/10/12 09:09:51;;;;;;;5.32;1.67;;;;;;;10.70;92.43;100666.63;5001012;28;20506;-80
2021/10/12 09:12:43;;;;;;;7.88;1.48;;;;;;;10.37;94.56;100674.72;5007354;28;20053;-80
2021/10/12 09:15:11;;;;;;;6.88;1.63;;;;;;;10.17;95.33;100667.91;4984909;28;20073;-81
2021/10/12 09:17:40;;;;;;;8.82;2.55;;;;;;;9.68;96.69;100664.53;5021555;28;20053;-81
2021/10/12 09:20:11;;;;;;;5.10;1.58;;;;;;;9.75;98.68;100658.84;5027607;28;20113;-82
2021/10/12 09:23:08;;;;;;;5.35;1.60;;;;;;;9.63;99.10;100662.16;5014744;28;20077;-79
2021/10/12 09:25:45;;;;;;;5.13;1.40;;;;;;;9.48;100.00;100666.47;5051402;28;20132;-80
2021/10/12 09:28:22;;;;;;;4.15;1.50;;;;;;;9.52;99.35;100660.13;5037647;28;20049;-84
2021/10/12 09:30:55;;;;;;;9.43;1.80;;;;;;;9.88;97.87;100659.03;5031137;28;20046;-81
2021/10/12 09:33:25;;;;;;;7.70;1.40;;;;;;;10.58;94.76;100656.81;5014113;28;20026;-85
2021/10/12 09:35:56;;;;;;;6.45;1.42;;;;;;;10.69;93.45;100654.41;5037533;28;20060;-83
2021/10/12 09:38:23;;;;;;;6.15;1.23;;;;;;;11.01;91.41;100644.59;5015791;28;20073;-79
2021/10/12 09:41:06;;;;;;;4.38;1.10;;;;;;;11.44;86.61;100647.25;4997943;28;20054;-83
2021/10/12 09:43:36;;;;;;;6.28;1.30;;;;;;;11.78;83.58;100638.06;4998742;28;20623;-79
2021/10/12 09:46:23;;;;;;;4.70;1.27;;;;;;;11.29;84.26;100635.84;5017303;28;20639;-81
2021/10/12 09:48:51;;;;;;;2.42;0.90;;;;;;;11.38;85.26;100640.56;4996589;28;20136;-80
2021/10/12 09:51:19;;;;;;;11.85;1.60;;;;;;;10.85;84.43;100631.53;5030924;28;20132;-80
2021/10/12 09:53:47;;;;;;;6.88;1.40;;;;;;;11.06;86.17;100632.00;5003201;28;20049;-80
2021/10/12 09:56:15;;;;;;;7.40;1.35;;;;;;;10.93;87.23;100631.03;5038320;28;20041;-84
2021/10/12 09:58:45;;;;;;;10.15;1.35;;;;;;;11.18;85.30;100627.78;5015572;28;20033;-86
2021/10/12 10:01:16;;;;;;;6.20;1.48;;;;;;;11.16;84.90;100622.56;5014927;28;20044;-82
2021/10/12 10:03:45;;;;;;;8.45;1.27;;;;;;;11.13;84.22;100619.31;4997879;28;20108;-79
2021/10/12 10:06:17;;;;;;;7.18;1.55;;;;;;;11.37;81.94;100623.06;4997604;28;20424;-80
2021/10/12 10:08:49;;;;;;;8.02;1.90;;;;;;;11.62;81.43;100618.88;5004795;28;20063;-81
2021/10/12 10:11:38;;;;;;;5.75;1.05;;;;;;;11.04;81.47;100604.91;5005134;28;20129;-78
2021/10/12 10:14:06;;;;;;;11.82;2.25;;;;;;;11.31;79.77;100623.44;5012615;28;20107;-87
2021/10/12 10:16:41;;;;;;;13.90;3.58;;;;;;;11.55;77.81;100614.94;5036710;28;20504;-80
2021/10/12 10:19:13;;;;;;;5.75;1.75;;;;;;;11.75;77.30;100608.38;5010842;28;20063;-83
2021/10/12 10:21:42;;;;;;;8.45;2.53;;;;;;;11.98;74.52;100607.81;4995732;28;20109;-82
2021/10/12 10:26:41;;;;;;;17.27;3.75;;;;;;;11.64;74.18;100607.28;5014618;28;20128;-84
2021/10/12 10:29:22;;;;;;;9.52;2.58;;;;;;;11.63;74.81;100604.75;4991389;28;20564;-83
2021/10/12 10:32:18;;;;;;;7.25;1.63;;;;;;;11.84;74.87;100603.41;5031317;28;20595;-87
2021/10/12 10:34:47;;;;;;;;;;;;;;;11.81;74.37;100603.56;4978784;28;20043;-79
2021/10/12 10:37:17;;;;;;;4.18;1.58;;;;;;;12.40;72.97;100603.28;5005165;28;20016;-80
2021/10/12 10:39:53;;;;;;;12.80;2.40;;;;;;;12.70;71.55;100596.84;4991037;28;20072;-79
2021/10/12 10:42:26;;;;;;;10.80;2.47;;;;;;;12.15;71.78;100598.75;4997427;28;20052;-80
2021/10/12 10:44:55;;;;;;;6.88;1.10;;;;;;;11.85;73.55;100599.84;5027080;28;20073;-82
2021/10/12 10:47:49;;;;;;;10.68;1.05;;;;;;;11.47;73.78;100599.59;5036910;28;20048;-81
2021/10/12 10:50:20;;;;;;;7.80;1.20;;;;;;;11.33;73.45;100595.19;5012689;28;20128;-82
2021/10/12 10:52:50;;;;;;;9.73;1.02;;;;;;;11.32;73.01;100595.28;5036747;28;20132;-77
2021/10/12 10:55:27;;;;;;;4.05;0.95;;;;;;;11.62;71.25;100595.16;4997338;28;20559;-78
2021/10/12 10:58:01;;;;;;;6.90;1.40;;;;;;;11.53;71.70;100590.47;5014599;28;20049;-84
2021/10/12 11:00:31;;;;;;;5.18;1.40;;;;;;;11.79;72.06;100586.97;5037393;28;20041;-79
2021/10/12 11:02:59;;;;;;;3.55;1.05;;;;;;;11.70;70.68;100582.31;5017172;28;20057;-80
2021/10/12 11:05:33;;;;;;;11.40;1.40;;;;;;;11.86;70.00;100590.13;5018439;28;20075;-82
2021/10/12 11:08:09;;;;;;;4.70;0.80;;;;;;;12.10;69.07;100582.38;5014597;28;20595;-85
2021/10/12 11:10:37;;;;;;;7.07;1.30;;;;;;;12.78;67.77;100576.88;5014021;28;20048;-86
2021/10/12 11:13:05;;;;;;;5.47;0.82;;;;;;;12.72;66.54;100573.84;5033444;28;20060;-83
2021/10/12 11:15:46;;;;;;;3.05;1.00;;;;;;;13.11;63.93;100576.34;5019219;28;20077;-86
2021/10/12 11:18:15;;;;;;;5.65;1.08;;;;;;;12.66;64.86;100570.66;5013454;28;20363;-81
2021/10/12 11:20:47;;;;;;;5.82;1.15;;;;;;;13.12;64.64;100575.41;5015608;28;20080;-80
2021/10/12 11:23:28;;;;;;;2.50;0.90;;;;;;;12.26;65.44;100575.16;5032573;28;20116;-83
2021/10/12 11:26:04;;;;;;;2.35;0.75;;;;;;;11.86;66.96;100574.28;5032594;28;20045;-81
2021/10/12 11:28:35;;;;;;;3.63;0.70;;;;;;;11.29;67.58;100572.59;4997085;28;20144;-80
2021/10/12 11:31:07;;;;;;;4.07;1.00;;;;;;;10.90;69.73;100573.31;5030837;28;20045;-82
2021/10/12 11:33:47;;;;;;;5.82;1.33;;;;;;;10.65;71.54;100571.28;4981823;28;20065;-82
2021/10/12 11:36:24;;;;;;;3.67;0.77;;;;;;;10.39;72.60;100578.09;5022727;28;20041;-82